Terminal Aerodrome Forecast
Issued by NWS

Home | Current Version | Previous Version | Graphics & Text | Print | Product List | Glossary On
Versions: 1 2 3 4 5 6 7 8 9 10 11 12 13 14 15 16
000
FTUS45 KGGW 240525
TAFGDV
TAF
KGDV 240525Z 2406/2506 03007KT 5SM -SHRA OVC012
     FM240800 07009KT 2SM -SHRA OVC009
     FM241300 35006KT P6SM VCSH OVC006
     FM242100 35008KT P6SM BKN022
     FM250300 05011KT P6SM BKN016=

USA.gov is the U.S. government's official web portal to all federal, state and local government web resources and services.